Time;durP1;ratioP1;P1;durP2;ratioP2;P2;SDS_P1;SDS_P2;PMS_P1;PMS_P2;Temp;Humidity;BMP_temperature;BMP_pressure;BME280_temperature;BME280_humidity;BME280_pressure;Samples;Min_cycle;Max_cycle;Signal;HPM_P1;HPM_P2
2023/09/28 00:01:41;;;;;;;2.97;2.75;;;20.90;64.90;;;;;;5022637;28;20049;-59
2023/09/28 00:04:07;;;;;;;3.67;2.45;;;20.80;65.00;;;;;;5020665;28;20057;-58
2023/09/28 00:06:37;;;;;;;3.30;2.50;;;20.80;65.10;;;;;;5021275;28;20049;-57
2023/09/28 00:09:05;;;;;;;3.17;2.60;;;20.80;65.10;;;;;;5011712;28;20725;-58
2023/09/28 00:11:34;;;;;;;4.35;2.45;;;20.80;65.20;;;;;;5015974;28;20046;-58
2023/09/28 00:14:03;;;;;;;2.78;2.33;;;20.70;65.10;;;;;;5015222;28;20046;-58
2023/09/28 00:16:31;;;;;;;2.80;2.60;;;20.80;65.20;;;;;;5011929;28;20053;-59
2023/09/28 00:19:01;;;;;;;2.78;2.50;;;20.70;65.10;;;;;;5011207;28;20067;-58
2023/09/28 00:21:28;;;;;;;3.17;2.75;;;20.70;65.00;;;;;;5021995;28;20128;-58
2023/09/28 00:23:55;;;;;;;3.78;2.53;;;20.70;65.20;;;;;;5011260;28;20133;-58
2023/09/28 00:26:25;;;;;;;4.80;2.50;;;20.60;65.10;;;;;;5017578;28;20107;-57
2023/09/28 00:28:54;;;;;;;3.55;2.42;;;20.70;65.40;;;;;;5023114;28;20458;-58
2023/09/28 00:31:21;;;;;;;3.65;2.58;;;20.60;65.40;;;;;;5027085;28;20142;-58
2023/09/28 00:33:50;;;;;;;3.25;2.17;;;20.60;66.10;;;;;;5020430;28;20045;-57
2023/09/28 00:36:17;;;;;;;3.13;2.72;;;20.60;65.50;;;;;;5017994;28;20050;-58
2023/09/28 00:38:47;;;;;;;6.53;2.58;;;20.60;65.60;;;;;;5010161;28;20046;-58
2023/09/28 00:41:22;;;;;;;2.95;2.75;;;20.60;65.60;;;;;;5011721;28;20053;-58
2023/09/28 00:43:52;;;;;;;4.22;3.83;;;20.60;65.70;;;;;;5013425;28;20042;-57
2023/09/28 00:46:19;;;;;;;3.80;2.90;;;20.60;65.80;;;;;;5017770;28;20066;-59
2023/09/28 00:49:03;;;;;;;2.53;2.33;;;20.60;65.80;;;;;;5027814;28;20053;-58
2023/09/28 00:51:33;;;;;;;2.95;2.65;;;20.60;66.10;;;;;;5012804;28;20124;-56
2023/09/28 00:54:01;;;;;;;3.45;2.60;;;20.60;65.80;;;;;;5017133;28;20060;-56
2023/09/28 00:56:31;;;;;;;2.75;2.55;;;20.60;65.80;;;;;;5020325;28;20545;-58
2023/09/28 00:59:03;;;;;;;2.97;2.67;;;20.60;65.70;;;;;;5018112;28;20058;-58
2023/09/28 01:01:39;;;;;;;3.17;2.85;;;20.60;65.60;;;;;;5021769;28;20049;-56
2023/09/28 01:04:06;;;;;;;3.30;3.00;;;20.60;65.40;;;;;;5015292;28;20108;-56
2023/09/28 01:06:39;;;;;;;2.97;2.78;;;20.60;65.40;;;;;;5015489;28;20488;-57
2023/09/28 01:09:08;;;;;;;4.25;2.95;;;20.60;65.30;;;;;;5016775;28;20041;-61
2023/09/28 01:11:36;;;;;;;3.70;3.03;;;20.60;65.40;;;;;;5017658;28;20518;-56
2023/09/28 01:14:04;;;;;;;2.90;2.58;;;20.60;65.30;;;;;;5016023;28;20107;-58
2023/09/28 01:16:34;;;;;;;2.60;2.40;;;20.70;65.40;;;;;;5011728;28;20527;-57
2023/09/28 01:19:11;;;;;;;2.83;2.63;;;20.70;65.70;;;;;;5010989;28;20056;-58
2023/09/28 01:21:37;;;;;;;3.00;2.60;;;20.70;65.60;;;;;;5016334;28;20131;-58
2023/09/28 01:24:06;;;;;;;2.97;2.67;;;20.70;65.60;;;;;;4998184;28;20651;-59
2023/09/28 01:26:34;;;;;;;2.78;2.58;;;20.70;65.70;;;;;;5011410;28;20400;-57
2023/09/28 01:29:03;;;;;;;3.00;2.58;;;20.70;65.70;;;;;;5011154;28;20030;-57
2023/09/28 01:31:32;;;;;;;3.50;2.28;;;20.60;65.70;;;;;;5016988;28;20046;-59
2023/09/28 01:33:59;;;;;;;2.97;2.78;;;20.60;65.70;;;;;;5012817;28;20046;-56
2023/09/28 01:36:25;;;;;;;3.85;2.53;;;20.60;65.70;;;;;;5018210;28;20058;-59
2023/09/28 01:39:07;;;;;;;3.63;2.78;;;20.50;65.70;;;;;;5013438;28;20041;-59
2023/09/28 01:41:37;;;;;;;2.85;2.63;;;20.50;66.00;;;;;;5013519;28;20045;-58
2023/09/28 01:44:06;;;;;;;3.08;2.60;;;20.50;65.80;;;;;;5015789;28;20073;-59
2023/09/28 01:46:37;;;;;;;3.72;2.67;;;20.40;65.80;;;;;;5013264;28;20046;-58
2023/09/28 01:49:05;;;;;;;3.17;2.53;;;20.40;65.70;;;;;;5019046;28;20465;-58
2023/09/28 01:51:37;;;;;;;2.78;2.30;;;20.40;65.70;;;;;;5017926;28;20050;-56
2023/09/28 01:54:07;;;;;;;3.08;2.47;;;20.30;65.70;;;;;;5013350;28;20047;-58
2023/09/28 01:56:34;;;;;;;3.78;2.70;;;20.30;65.60;;;;;;5013655;28;20046;-59
2023/09/28 01:59:05;;;;;;;3.35;2.45;;;20.20;65.60;;;;;;5006888;23;20471;-50
2023/09/28 02:01:32;;;;;;;2.90;2.60;;;20.10;65.60;;;;;;4978789;28;20049;-48
2023/09/28 02:04:01;;;;;;;5.13;2.83;;;20.00;65.70;;;;;;4982615;28;20038;-49
2023/09/28 02:06:32;;;;;;;3.65;2.83;;;20.00;65.80;;;;;;4979215;28;20459;-49
2023/09/28 02:09:04;;;;;;;10.10;3.30;;;20.00;66.00;;;;;;4994380;28;20030;-49
2023/09/28 02:11:30;;;;;;;3.78;2.45;;;19.90;66.00;;;;;;4990372;28;20132;-50
2023/09/28 02:14:00;;;;;;;3.00;2.65;;;19.80;66.00;;;;;;4968909;28;20043;-53
2023/09/28 02:16:29;;;;;;;2.28;2.08;;;19.80;66.10;;;;;;4977713;28;20072;-49
2023/09/28 02:18:58;;;;;;;2.78;2.53;;;19.70;66.00;;;;;;4977386;28;20046;-50
2023/09/28 02:21:25;;;;;;;2.70;2.42;;;19.70;66.00;;;;;;4988243;28;20070;-50
2023/09/28 02:23:54;;;;;;;3.00;2.75;;;19.70;66.20;;;;;;4990892;28;20050;-51
2023/09/28 02:26:25;;;;;;;3.03;2.60;;;19.60;66.60;;;;;;4992017;28;20050;-51
2023/09/28 02:28:55;;;;;;;;;;;19.50;66.70;;;;;;4970838;28;20046;-51
2023/09/28 02:31:21;;;;;;;3.50;2.50;;;19.60;66.60;;;;;;4990125;28;20343;-53
2023/09/28 02:33:51;;;;;;;2.70;2.50;;;19.50;66.10;;;;;;4970445;28;20038;-49
2023/09/28 02:36:18;;;;;;;2.58;2.38;;;19.50;66.30;;;;;;4990742;28;20053;-51
2023/09/28 02:38:45;;;;;;;2.70;2.50;;;19.40;66.20;;;;;;4990360;28;20134;-50
2023/09/28 02:41:20;;;;;;;2.60;2.40;;;19.30;66.10;;;;;;4972238;28;20475;-51
2023/09/28 02:43:47;;;;;;;3.10;2.30;;;19.30;66.60;;;;;;4970771;28;20069;-52
2023/09/28 02:46:14;;;;;;;2.35;1.88;;;19.30;66.40;;;;;;4990429;28;20042;-50
2023/09/28 02:48:41;;;;;;;4.80;2.50;;;19.20;66.40;;;;;;4989846;28;20054;-53
2023/09/28 02:51:10;;;;;;;4.10;2.67;;;19.20;66.40;;;;;;4987603;28;20549;-48
2023/09/28 02:53:37;;;;;;;2.60;2.38;;;19.20;66.50;;;;;;4964946;28;20114;-52
2023/09/28 02:56:07;;;;;;;3.55;2.92;;;19.10;66.60;;;;;;4987219;28;20512;-52
2023/09/28 02:58:41;;;;;;;4.45;3.22;;;19.10;66.60;;;;;;4975762;28;20082;-53
2023/09/28 03:01:11;;;;;;;3.35;2.70;;;19.00;66.60;;;;;;4994297;28;20065;-51
2023/09/28 03:03:49;;;;;;;3.08;2.75;;;19.00;66.70;;;;;;4976927;28;20162;-51
2023/09/28 03:06:16;;;;;;;2.38;2.17;;;19.00;66.60;;;;;;4968091;28;20417;-50
2023/09/28 03:08:43;;;;;;;4.40;2.25;;;18.90;66.50;;;;;;4971840;28;20500;-52
2023/09/28 03:11:14;;;;;;;2.60;2.38;;;18.90;66.50;;;;;;4987897;28;20116;-50
2023/09/28 03:13:44;;;;;;;2.88;2.13;;;18.80;66.60;;;;;;4985162;28;20057;-52
2023/09/28 03:16:13;;;;;;;3.10;2.38;;;18.80;66.60;;;;;;4990141;28;20084;-50
2023/09/28 03:18:40;;;;;;;3.30;2.40;;;18.80;66.50;;;;;;4972864;28;20590;-49
2023/09/28 03:21:09;;;;;;;2.40;2.20;;;18.70;66.60;;;;;;4986977;28;20053;-53
2023/09/28 03:23:36;;;;;;;2.38;2.00;;;18.70;66.70;;;;;;4992524;28;20129;-51
2023/09/28 03:26:02;;;;;;;7.40;2.15;;;18.70;66.70;;;;;;4972113;28;20050;-51
2023/09/28 03:28:32;;;;;;;4.22;2.92;;;18.70;66.70;;;;;;4989724;28;20105;-50
2023/09/28 03:30:59;;;;;;;3.80;2.50;;;18.70;66.90;;;;;;4973995;28;20108;-51
2023/09/28 03:33:26;;;;;;;4.20;2.47;;;18.60;66.80;;;;;;4987151;28;20055;-53
2023/09/28 03:35:55;;;;;;;3.10;2.80;;;18.60;66.90;;;;;;4986236;28;20043;-49
2023/09/28 03:38:24;;;;;;;2.55;2.35;;;18.50;67.00;;;;;;4994635;28;20118;-51
2023/09/28 03:40:53;;;;;;;2.35;2.05;;;18.50;67.60;;;;;;4996949;28;20069;-49
2023/09/28 03:43:20;;;;;;;2.55;2.35;;;18.50;67.00;;;;;;4997553;28;20046;-51
2023/09/28 03:45:46;;;;;;;3.58;2.33;;;18.50;66.80;;;;;;4988354;28;20065;-50
2023/09/28 03:48:14;;;;;;;2.58;2.30;;;18.50;67.00;;;;;;4984521;28;20500;-52
2023/09/28 03:50:41;;;;;;;2.42;2.13;;;18.50;67.00;;;;;;4989456;28;20069;-50
2023/09/28 03:53:08;;;;;;;2.53;2.33;;;18.40;67.00;;;;;;4980747;28;20136;-53
2023/09/28 03:55:34;;;;;;;2.45;2.17;;;18.40;67.00;;;;;;4979595;28;20104;-50
2023/09/28 03:58:04;;;;;;;2.92;2.63;;;18.40;67.00;;;;;;4995484;28;20069;-51
2023/09/28 04:00:30;;;;;;;2.80;2.40;;;18.40;67.00;;;;;;4995074;28;20074;-52
2023/09/28 04:03:00;;;;;;;3.67;2.40;;;18.30;67.20;;;;;;4997055;28;20607;-50
2023/09/28 04:05:31;;;;;;;2.85;2.40;;;18.30;67.00;;;;;;4986913;28;20054;-51
2023/09/28 04:08:07;;;;;;;2.40;2.20;;;18.30;67.20;;;;;;4995140;28;20053;-50
2023/09/28 04:10:33;;;;;;;2.25;2.10;;;18.30;67.30;;;;;;4987574;28;20042;-51
2023/09/28 04:13:03;;;;;;;2.45;2.22;;;18.20;67.10;;;;;;4991920;28;20042;-50
2023/09/28 04:15:30;;;;;;;2.53;2.30;;;18.20;67.20;;;;;;4995000;28;20113;-51
2023/09/28 04:17:57;;;;;;;8.40;2.70;;;18.20;67.20;;;;;;4982265;28;20481;-49
2023/09/28 04:20:29;;;;;;;2.92;2.20;;;18.20;67.20;;;;;;4991296;28;20077;-50
2023/09/28 04:22:58;;;;;;;4.38;2.83;;;18.20;67.20;;;;;;4996117;28;20049;-49
2023/09/28 04:25:26;;;;;;;2.53;2.33;;;18.20;67.10;;;;;;4975092;28;20053;-52
2023/09/28 04:27:54;;;;;;;3.05;2.42;;;18.10;67.10;;;;;;4989053;28;20034;-52
2023/09/28 04:30:22;;;;;;;3.78;2.40;;;18.10;67.10;;;;;;4988257;28;20044;-50
2023/09/28 04:32:51;;;;;;;3.78;2.25;;;18.10;67.20;;;;;;4991069;28;20470;-51
2023/09/28 04:35:21;;;;;;;3.25;2.72;;;18.00;67.20;;;;;;4984145;28;20093;-54
2023/09/28 04:37:48;;;;;;;2.65;2.40;;;18.00;67.20;;;;;;4992089;28;20050;-50
2023/09/28 04:40:15;;;;;;;2.53;2.22;;;18.00;67.50;;;;;;4991598;28;20419;-51
2023/09/28 04:42:42;;;;;;;4.82;2.63;;;18.00;67.50;;;;;;4996933;28;20059;-53
2023/09/28 04:45:10;;;;;;;3.92;2.60;;;18.00;67.60;;;;;;4988470;28;20129;-50
2023/09/28 04:47:37;;;;;;;3.55;2.42;;;17.90;67.60;;;;;;4993217;28;20085;-52
2023/09/28 04:50:04;;;;;;;2.30;2.10;;;17.90;67.60;;;;;;4997657;28;20382;-51
2023/09/28 04:52:30;;;;;;;3.35;3.05;;;17.90;67.70;;;;;;4988835;28;20217;-53
2023/09/28 04:54:57;;;;;;;3.50;3.20;;;17.90;67.90;;;;;;4994381;28;20093;-54
2023/09/28 04:57:25;;;;;;;2.67;2.38;;;17.90;67.90;;;;;;4993973;28;20617;-50
2023/09/28 04:59:53;;;;;;;2.60;2.38;;;17.90;68.00;;;;;;4975336;28;20051;-53
2023/09/28 05:02:20;;;;;;;4.57;2.30;;;17.90;68.00;;;;;;4985462;28;20456;-53
2023/09/28 05:04:47;;;;;;;4.70;2.90;;;17.90;68.10;;;;;;4985576;28;20130;-53
2023/09/28 05:07:14;;;;;;;3.60;3.17;;;17.80;68.10;;;;;;4992893;28;20038;-50
2023/09/28 05:09:42;;;;;;;3.13;2.85;;;17.80;68.10;;;;;;4972162;28;20046;-52
2023/09/28 05:12:11;;;;;;;4.90;3.60;;;17.80;68.20;;;;;;4991292;28;20058;-54
2023/09/28 05:14:38;;;;;;;3.45;2.70;;;17.80;68.70;;;;;;4992170;28;20129;-50
2023/09/28 05:17:06;;;;;;;4.93;3.42;;;17.80;69.30;;;;;;4992624;28;20073;-51
2023/09/28 05:19:33;;;;;;;3.53;2.97;;;17.80;70.40;;;;;;4988330;28;20049;-50
2023/09/28 05:21:59;;;;;;;4.82;3.30;;;17.90;71.20;;;;;;4973261;28;20125;-50
2023/09/28 05:24:28;;;;;;;7.55;4.13;;;18.00;71.60;;;;;;4990303;28;20638;-50
2023/09/28 05:26:56;;;;;;;3.97;3.50;;;18.00;72.10;;;;;;4992074;28;20050;-52
2023/09/28 05:29:23;;;;;;;4.38;3.30;;;18.10;71.80;;;;;;4991737;28;20053;-51
2023/09/28 05:31:49;;;;;;;4.68;3.40;;;18.10;71.80;;;;;;4991077;28;20044;-51
2023/09/28 05:34:16;;;;;;;4.18;3.60;;;18.20;71.80;;;;;;4988552;28;20037;-51
2023/09/28 05:36:43;;;;;;;6.32;3.88;;;18.30;72.10;;;;;;4988383;28;20477;-52
2023/09/28 05:39:09;;;;;;;3.30;3.00;;;18.30;72.10;;;;;;4991795;28;20133;-50
2023/09/28 05:41:36;;;;;;;4.22;3.55;;;18.40;72.00;;;;;;4986576;28;20053;-51
2023/09/28 05:44:03;;;;;;;3.72;3.22;;;18.50;72.10;;;;;;4991414;28;20125;-52
2023/09/28 05:46:30;;;;;;;4.65;3.55;;;18.50;72.30;;;;;;4993323;28;20058;-49
2023/09/28 05:48:57;;;;;;;6.53;4.07;;;18.60;72.30;;;;;;4993038;28;20081;-50
2023/09/28 05:51:24;;;;;;;5.43;4.07;;;18.60;72.40;;;;;;4986328;28;20034;-50
2023/09/28 05:53:52;;;;;;;4.82;4.07;;;18.70;72.60;;;;;;4985620;28;20105;-50
2023/09/28 05:56:20;;;;;;;4.75;4.30;;;18.70;72.60;;;;;;4990015;28;20061;-49
2023/09/28 05:58:47;;;;;;;5.97;3.83;;;18.80;72.50;;;;;;4987788;28;20109;-49
2023/09/28 06:01:17;;;;;;;5.53;4.10;;;18.90;72.40;;;;;;4989331;28;20062;-53
2023/09/28 06:03:44;;;;;;;4.25;3.42;;;18.90;72.40;;;;;;4986268;28;20062;-51
2023/09/28 06:06:18;;;;;;;6.22;3.72;;;18.90;72.10;;;;;;4984488;28;20112;-52
2023/09/28 06:08:52;;;;;;;5.88;4.45;;;19.00;72.50;;;;;;4985152;28;20112;-51
2023/09/28 06:11:19;;;;;;;5.63;4.57;;;19.00;72.10;;;;;;4987915;28;20050;-50
2023/09/28 06:13:46;;;;;;;3.95;3.55;;;19.00;72.00;;;;;;4989620;28;20038;-49
2023/09/28 06:16:16;;;;;;;4.57;3.63;;;19.00;71.90;;;;;;4988261;28;20117;-52
2023/09/28 06:18:44;;;;;;;5.60;4.38;;;19.10;71.90;;;;;;4988886;28;20042;-53
2023/09/28 06:21:12;;;;;;;4.60;3.67;;;19.10;72.10;;;;;;4991055;28;20510;-49
2023/09/28 06:23:38;;;;;;;7.95;4.13;;;19.10;72.00;;;;;;4989517;28;20088;-54
2023/09/28 06:26:05;;;;;;;6.25;4.00;;;19.10;72.00;;;;;;4989977;28;20385;-50
2023/09/28 06:28:32;;;;;;;4.50;3.90;;;19.20;72.20;;;;;;4988870;28;20043;-50
2023/09/28 06:30:59;;;;;;;6.40;3.90;;;19.20;72.20;;;;;;4990564;28;20085;-51
2023/09/28 06:33:26;;;;;;;4.45;3.90;;;19.30;72.20;;;;;;4986671;28;20046;-49
2023/09/28 06:35:54;;;;;;;6.97;4.30;;;19.30;72.10;;;;;;4981687;28;20042;-52
2023/09/28 06:38:21;;;;;;;5.45;3.65;;;19.30;72.20;;;;;;4989343;28;20046;-49
2023/09/28 06:40:48;;;;;;;4.85;3.75;;;19.30;72.10;;;;;;4987852;28;20906;-53
2023/09/28 06:43:15;;;;;;;3.90;3.60;;;19.40;72.10;;;;;;4989846;28;20057;-50
2023/09/28 06:45:43;;;;;;;6.22;3.95;;;19.40;72.10;;;;;;4987237;28;20068;-50
2023/09/28 06:48:09;;;;;;;6.63;4.60;;;19.40;72.10;;;;;;4989839;28;20049;-53
2023/09/28 06:50:45;;;;;;;4.53;3.60;;;19.40;72.10;;;;;;4980192;28;20046;-50
2023/09/28 06:53:13;;;;;;;7.60;4.28;;;19.50;72.10;;;;;;4986670;28;20041;-53
2023/09/28 06:55:40;;;;;;;20.30;5.72;;;19.50;72.10;;;;;;4983514;28;20044;-52
2023/09/28 06:58:09;;;;;;;7.22;4.07;;;19.50;72.20;;;;;;4984454;28;20050;-50
2023/09/28 07:00:36;;;;;;;4.25;3.50;;;19.60;72.30;;;;;;4989314;28;20125;-49
2023/09/28 07:03:05;;;;;;;7.85;4.75;;;19.60;72.30;;;;;;4989795;28;20522;-52
2023/09/28 07:05:34;;;;;;;5.35;4.18;;;19.60;72.30;;;;;;4981849;28;20038;-48
2023/09/28 07:08:05;;;;;;;4.93;4.15;;;19.70;72.30;;;;;;4986818;28;20438;-50
2023/09/28 07:10:33;;;;;;;6.35;4.75;;;19.70;72.30;;;;;;4989553;28;20055;-48
2023/09/28 07:13:01;;;;;;;5.53;4.95;;;19.70;72.40;;;;;;4990113;28;20062;-53
2023/09/28 07:15:31;;;;;;;6.32;4.85;;;19.80;72.40;;;;;;4982953;28;20046;-49
2023/09/28 07:18:00;;;;;;;4.55;4.13;;;19.80;72.40;;;;;;4985357;28;20046;-49
2023/09/28 07:20:27;;;;;;;5.20;4.22;;;19.90;72.40;;;;;;4987902;28;20125;-50
2023/09/28 07:22:54;;;;;;;5.28;4.78;;;19.90;72.30;;;;;;4986777;28;20042;-49
2023/09/28 07:25:21;;;;;;;6.70;4.50;;;19.90;72.40;;;;;;4990252;28;20109;-50
2023/09/28 07:27:52;;;;;;;6.68;4.88;;;20.00;72.40;;;;;;4989266;28;20500;-51
2023/09/28 07:30:20;;;;;;;8.30;5.10;;;20.10;72.50;;;;;;4987414;28;20110;-49
2023/09/28 07:32:47;;;;;;;6.03;4.32;;;20.10;72.50;;;;;;4979975;28;20065;-49
2023/09/28 07:35:15;;;;;;;5.63;4.50;;;20.20;72.70;;;;;;4978922;28;20457;-52
2023/09/28 07:37:43;;;;;;;6.65;4.53;;;20.30;72.50;;;;;;4983382;28;20100;-52
2023/09/28 07:40:12;;;;;;;6.65;5.13;;;20.40;72.50;;;;;;4986140;28;20547;-49
2023/09/28 07:42:40;;;;;;;7.97;4.53;;;20.50;72.20;;;;;;4993104;28;20612;-53
2023/09/28 07:45:07;;;;;;;5.50;4.63;;;20.50;72.00;;;;;;4973143;28;20165;-52
2023/09/28 07:47:34;;;;;;;6.90;3.92;;;20.60;71.80;;;;;;4992109;28;20109;-50
2023/09/28 07:50:01;;;;;;;6.13;4.05;;;20.60;71.50;;;;;;4993064;28;20030;-54
2023/09/28 07:52:27;;;;;;;4.85;4.35;;;20.70;71.30;;;;;;4990853;28;20038;-51
2023/09/28 07:54:55;;;;;;;7.80;5.07;;;20.70;70.90;;;;;;4989963;28;20138;-49
2023/09/28 07:57:22;;;;;;;5.57;4.10;;;20.70;70.80;;;;;;4988885;28;20465;-52
2023/09/28 07:59:49;;;;;;;6.35;4.13;;;20.70;70.60;;;;;;5019000;23;20397;-56
2023/09/28 08:02:16;;;;;;;4.88;4.18;;;20.80;70.70;;;;;;4992133;28;20118;-57
2023/09/28 08:04:43;;;;;;;9.48;4.18;;;20.80;70.60;;;;;;4981904;28;20121;-57
2023/09/28 08:07:10;;;;;;;8.65;4.00;;;20.80;70.80;;;;;;4992143;28;20038;-59
2023/09/28 08:09:37;;;;;;;5.22;3.75;;;20.90;70.70;;;;;;4992874;28;20038;-56
2023/09/28 08:12:04;;;;;;;7.03;4.10;;;20.90;70.50;;;;;;4993037;28;20436;-58
2023/09/28 08:14:31;;;;;;;7.30;3.83;;;20.90;70.30;;;;;;4983737;28;20141;-54
2023/09/28 08:16:58;;;;;;;5.35;3.30;;;20.90;70.10;;;;;;4986308;28;20481;-54
2023/09/28 08:19:24;;;;;;;7.38;3.65;;;21.00;70.00;;;;;;4992320;28;20050;-57
2023/09/28 08:21:57;;;;;;;6.00;3.58;;;21.00;69.60;;;;;;4990338;28;20117;-58
2023/09/28 08:24:23;;;;;;;6.25;3.03;;;21.00;69.40;;;;;;4985817;28;20125;-59
2023/09/28 08:26:50;;;;;;;7.35;3.60;;;21.00;69.30;;;;;;4991656;28;20113;-56
2023/09/28 08:29:18;;;;;;;5.50;3.65;;;21.10;69.30;;;;;;4991851;28;20042;-58
2023/09/28 08:31:44;;;;;;;5.57;3.42;;;21.10;69.40;;;;;;4989993;28;20122;-58
2023/09/28 08:34:12;;;;;;;5.88;4.20;;;21.20;69.10;;;;;;4989087;28;20057;-58
2023/09/28 08:36:51;;;;;;;5.80;3.10;;;21.20;69.20;;;;;;4985945;28;20042;-56
2023/09/28 08:39:18;;;;;;;7.05;2.92;;;21.30;68.40;;;;;;4989570;28;20073;-58
2023/09/28 08:41:53;;;;;;;7.65;3.75;;;21.30;67.70;;;;;;4986578;28;20041;-56
2023/09/28 08:44:26;;;;;;;6.05;2.53;;;21.40;67.70;;;;;;5003281;28;20509;-57
2023/09/28 08:47:00;;;;;;;5.50;2.97;;;21.30;67.40;;;;;;5008309;28;20038;-57
2023/09/28 08:49:29;;;;;;;5.47;2.88;;;21.40;66.80;;;;;;4985775;28;20389;-58
2023/09/28 08:51:57;;;;;;;7.43;3.83;;;21.50;66.80;;;;;;4991038;28;20070;-58
2023/09/28 08:54:23;;;;;;;7.82;3.50;;;21.50;66.30;;;;;;4991059;28;20050;-58
2023/09/28 08:56:52;;;;;;;8.93;4.05;;;21.50;66.30;;;;;;4988990;28;20042;-58
2023/09/28 08:59:20;;;;;;;7.22;3.00;;;21.50;65.90;;;;;;4989476;28;20052;-57
2023/09/28 09:01:47;;;;;;;8.52;3.08;;;21.60;66.10;;;;;;4992071;28;20504;-58
2023/09/28 09:04:14;;;;;;;5.82;3.38;;;21.60;66.30;;;;;;4986975;28;20046;-57
2023/09/28 09:06:42;;;;;;;7.40;3.00;;;21.60;66.20;;;;;;4991889;28;20054;-58
2023/09/28 09:09:14;;;;;;;4.05;2.55;;;21.70;65.80;;;;;;4991561;28;20062;-56
2023/09/28 09:12:04;;;;;;;5.65;2.65;;;21.80;65.80;;;;;;4988418;28;20046;-59
2023/09/28 09:14:33;;;;;;;7.40;3.10;;;21.80;64.70;;;;;;4990666;28;20073;-57
2023/09/28 09:17:00;;;;;;;6.25;2.50;;;21.90;64.90;;;;;;4990906;28;20048;-58
2023/09/28 09:19:31;;;;;;;5.88;2.70;;;22.00;64.40;;;;;;4991229;28;20042;-58
2023/09/28 09:21:58;;;;;;;6.90;2.72;;;22.10;63.90;;;;;;4989765;28;20050;-56
2023/09/28 09:24:25;;;;;;;7.47;3.45;;;22.10;64.80;;;;;;4990654;28;20073;-56
2023/09/28 09:26:53;;;;;;;6.13;3.13;;;22.20;64.20;;;;;;4990988;28;20045;-58
2023/09/28 09:29:20;;;;;;;9.20;2.35;;;22.20;64.10;;;;;;4989608;28;20158;-58
2023/09/28 09:31:47;;;;;;;5.95;2.40;;;22.30;63.50;;;;;;4987549;28;20409;-58
2023/09/28 09:34:18;;;;;;;5.07;2.55;;;22.40;62.90;;;;;;4987960;28;20134;-56
2023/09/28 09:36:56;;;;;;;5.78;2.95;;;22.40;62.80;;;;;;4984621;28;20042;-57
2023/09/28 09:39:29;;;;;;;9.60;3.10;;;22.50;62.30;;;;;;5003899;28;20048;-59
2023/09/28 09:41:59;;;;;;;6.55;3.38;;;22.50;62.80;;;;;;4985825;28;20042;-59
2023/09/28 09:44:28;;;;;;;;;;;22.50;63.00;;;;;;4994688;28;20042;-58
2023/09/28 09:46:55;;;;;;;6.15;2.60;;;22.60;63.30;;;;;;4991759;28;19945;-58
2023/09/28 09:49:26;;;;;;;7.28;2.72;;;22.60;62.70;;;;;;4987034;28;20129;-58
2023/09/28 09:51:54;;;;;;;4.90;2.63;;;22.60;62.50;;;;;;4985376;28;20121;-58
2023/09/28 09:54:21;;;;;;;4.97;2.38;;;22.60;62.80;;;;;;5001232;28;20729;-56
2023/09/28 09:56:52;;;;;;;4.97;2.45;;;22.70;63.00;;;;;;4990793;28;20153;-56
2023/09/28 09:59:21;;;;;;;8.53;3.60;;;22.70;63.10;;;;;;4990730;28;20436;-57
2023/09/28 10:01:50;;;;;;;5.75;2.45;;;22.80;62.70;;;;;;4987109;28;20072;-58
2023/09/28 10:04:21;;;;;;;7.78;2.65;;;22.80;62.30;;;;;;4993376;28;20071;-58
2023/09/28 10:06:52;;;;;;;7.70;2.70;;;22.80;61.90;;;;;;4986862;28;20049;-58
2023/09/28 10:09:21;;;;;;;5.47;2.50;;;23.00;61.40;;;;;;4997291;28;20050;-57
2023/09/28 10:11:49;;;;;;;4.82;2.28;;;23.00;61.00;;;;;;5149795;23;20058;-57
2023/09/28 10:14:19;;;;;;;5.88;2.78;;;23.00;60.90;;;;;;4990243;28;20051;-56
2023/09/28 10:16:49;;;;;;;5.25;2.30;;;23.10;61.00;;;;;;4989955;28;20046;-56
2023/09/28 10:19:22;;;;;;;7.57;2.63;;;23.20;60.50;;;;;;4989498;28;20054;-56
2023/09/28 10:21:51;;;;;;;7.63;2.65;;;23.20;60.20;;;;;;4979841;28;20073;-58
2023/09/28 10:24:24;;;;;;;10.98;2.92;;;23.40;60.30;;;;;;4974817;28;20125;-56
2023/09/28 10:26:52;;;;;;;5.35;2.22;;;23.50;60.40;;;;;;4984376;28;20791;-57
2023/09/28 10:29:22;;;;;;;7.20;2.30;;;23.60;59.90;;;;;;4989552;28;20054;-55
2023/09/28 10:31:55;;;;;;;8.77;2.72;;;23.70;59.10;;;;;;5003763;28;20070;-59
2023/09/28 10:34:27;;;;;;;8.77;3.13;;;23.70;59.00;;;;;;5011927;23;20046;-52
2023/09/28 10:37:11;;;;;;;6.50;2.80;;;23.80;58.90;;;;;;5006586;28;20073;-50
2023/09/28 10:39:38;;;;;;;5.20;2.58;;;23.80;58.20;;;;;;4992017;28;20050;-51
2023/09/28 10:42:08;;;;;;;5.68;2.40;;;23.90;58.20;;;;;;5002542;28;20089;-51
2023/09/28 10:44:45;;;;;;;9.38;2.50;;;23.80;58.10;;;;;;5003396;28;20122;-51
2023/09/28 10:47:14;;;;;;;7.80;2.70;;;23.90;58.80;;;;;;4989855;28;20046;-51
2023/09/28 10:49:41;;;;;;;6.38;2.88;;;23.90;58.90;;;;;;4988219;28;20117;-51
2023/09/28 10:52:10;;;;;;;4.22;2.20;;;23.90;59.30;;;;;;4991786;28;20113;-53
2023/09/28 10:54:38;;;;;;;6.18;2.35;;;24.00;59.10;;;;;;4983683;28;20397;-50
2023/09/28 10:57:04;;;;;;;5.55;2.28;;;24.00;58.10;;;;;;4988324;28;20744;-51
2023/09/28 10:59:31;;;;;;;9.48;2.50;;;24.10;58.60;;;;;;4989226;28;20081;-49
2023/09/28 11:02:00;;;;;;;6.38;2.13;;;24.20;58.60;;;;;;4989690;28;20038;-52
2023/09/28 11:04:28;;;;;;;6.78;2.60;;;24.30;57.70;;;;;;4983594;28;20093;-52
2023/09/28 11:07:15;;;;;;;8.68;2.85;;;24.40;57.30;;;;;;4987623;28;20039;-53
2023/09/28 11:09:42;;;;;;;7.55;2.83;;;24.50;56.80;;;;;;4993901;28;20042;-53
2023/09/28 11:12:09;;;;;;;6.65;2.47;;;24.50;56.70;;;;;;4983838;28;20038;-51
2023/09/28 11:14:42;;;;;;;7.53;2.83;;;24.50;56.80;;;;;;4985650;28;20121;-52
2023/09/28 11:17:09;;;;;;;7.00;2.67;;;24.50;56.30;;;;;;4990095;28;20060;-53
2023/09/28 11:19:39;;;;;;;7.95;3.10;;;24.60;56.60;;;;;;4990488;28;20042;-53
2023/09/28 11:22:07;;;;;;;5.82;2.45;;;24.60;56.70;;;;;;4990738;28;20791;-52
2023/09/28 11:24:34;;;;;;;5.90;2.25;;;24.70;56.20;;;;;;4992617;28;20035;-53
2023/09/28 11:27:01;;;;;;;8.38;2.45;;;24.70;56.00;;;;;;4994507;28;20109;-53
2023/09/28 11:29:28;;;;;;;6.10;2.70;;;24.80;55.90;;;;;;4991271;28;20066;-52
2023/09/28 11:31:55;;;;;;;4.85;2.75;;;24.80;55.70;;;;;;4992798;28;20522;-50
2023/09/28 11:34:33;;;;;;;7.05;3.28;;;24.90;56.50;;;;;;4986467;28;20125;-50
2023/09/28 11:37:00;;;;;;;7.60;2.25;;;24.90;55.50;;;;;;4991231;28;20042;-53
2023/09/28 11:39:27;;;;;;;6.93;2.65;;;25.00;56.00;;;;;;4992929;28;20046;-51
2023/09/28 11:41:58;;;;;;;7.32;2.20;;;25.10;56.00;;;;;;4994408;28;20422;-53
2023/09/28 11:44:26;;;;;;;8.77;2.65;;;25.10;55.70;;;;;;4989193;28;20050;-49
2023/09/28 11:46:54;;;;;;;6.32;2.10;;;25.20;56.20;;;;;;4987320;28;20050;-52
2023/09/28 11:49:22;;;;;;;9.18;2.97;;;25.20;56.10;;;;;;4989039;28;20042;-52
2023/09/28 11:51:55;;;;;;;6.95;2.20;;;25.30;56.20;;;;;;5002787;28;20072;-53
2023/09/28 11:54:22;;;;;;;7.65;2.63;;;25.40;55.40;;;;;;4998809;28;20045;-53
2023/09/28 11:56:49;;;;;;;5.03;2.10;;;25.50;55.40;;;;;;4999824;28;20437;-53
2023/09/28 11:59:16;;;;;;;5.97;2.35;;;25.50;55.00;;;;;;4992182;28;20400;-51
2023/09/28 12:01:45;;;;;;;7.13;2.65;;;25.50;55.60;;;;;;4995977;28;20057;-53
2023/09/28 12:04:13;;;;;;;7.45;2.03;;;25.50;55.00;;;;;;4991841;28;20439;-52
2023/09/28 12:06:40;;;;;;;7.28;2.30;;;25.50;55.00;;;;;;4993391;28;20070;-54
2023/09/28 12:09:08;;;;;;;5.50;2.17;;;25.50;55.50;;;;;;4992662;28;20042;-53
2023/09/28 12:11:39;;;;;;;6.90;2.35;;;25.50;55.20;;;;;;4987089;28;20113;-53
2023/09/28 12:14:07;;;;;;;6.10;2.40;;;25.50;55.80;;;;;;4988639;28;20077;-53
2023/09/28 12:16:34;;;;;;;4.60;2.22;;;25.60;56.00;;;;;;4993035;28;20364;-53
2023/09/28 12:19:01;;;;;;;8.35;3.20;;;25.70;55.80;;;;;;4992581;28;20500;-54
2023/09/28 12:21:28;;;;;;;8.07;2.38;;;25.80;55.40;;;;;;4990145;28;20100;-51
2023/09/28 12:23:58;;;;;;;8.25;2.88;;;25.90;55.10;;;;;;4990190;28;20046;-51
2023/09/28 12:26:25;;;;;;;7.90;2.95;;;25.90;55.00;;;;;;4991733;28;20057;-52
2023/09/28 12:28:51;;;;;;;6.30;2.88;;;26.10;54.30;;;;;;4993840;28;20037;-52
2023/09/28 12:31:18;;;;;;;6.05;2.70;;;26.10;54.60;;;;;;4987331;28;20136;-50
2023/09/28 12:33:45;;;;;;;6.55;2.85;;;26.20;54.80;;;;;;4988946;28;20039;-50
2023/09/28 12:36:14;;;;;;;7.47;2.80;;;26.30;54.90;;;;;;4995122;28;20045;-51
2023/09/28 12:38:41;;;;;;;8.48;2.60;;;26.30;54.50;;;;;;4992371;28;20117;-49
2023/09/28 12:41:09;;;;;;;4.40;2.17;;;26.40;54.00;;;;;;4991841;28;20070;-51
2023/09/28 12:43:36;;;;;;;6.20;2.72;;;26.40;53.80;;;;;;4984890;28;20045;-53
2023/09/28 12:46:07;;;;;;;7.90;3.17;;;26.50;53.70;;;;;;4989192;28;20121;-49
2023/09/28 12:48:34;;;;;;;7.28;2.33;;;26.60;53.90;;;;;;4988654;28;20065;-50
2023/09/28 12:51:01;;;;;;;5.18;2.22;;;26.60;53.50;;;;;;4996670;28;20576;-53
2023/09/28 12:53:27;;;;;;;8.27;4.13;;;26.60;53.20;;;;;;5000192;28;20125;-53
2023/09/28 12:55:54;;;;;;;6.68;2.63;;;26.70;53.20;;;;;;4989597;28;21923;-52